Phoenix, Oregon
Current Conditions -  °F | °C
As of 1:07 AM on Saturday 25 Oct 2014 (Local Time) from KMFR Reporting Station
Few Clouds Few Clouds  
Wind Chill: 51°   Ceiling: Unl
Heat Index: 51°   Visibility: 9mi
Dew Point: 50°   Wind: 5mph
Humidity: 96%   Direction: NA
Pressure: 29.62"   Gusts: NA
Location:  42.28°N, 122.82°W
Report Text: KMFR 250807Z AUTO VRB04KT 9SM FEW001 11/10 A2962 RMK AO2 T01060100
Loading
Personal Weather Stations






























Interactive Weather Map
Tropical Storm Tracking
New forecast layout! Learn more

10-Day Weather Forecast

Advertisements
Track Severe Weather on mobile